createdAt,value
2019-05-26T00:02:00.796Z,10.20
2019-05-26T00:04:30.189Z,10.20
2019-05-26T00:06:59.551Z,10.30
2019-05-26T00:09:28.939Z,10.30
2019-05-26T00:11:58.294Z,10.40
2019-05-26T00:14:27.686Z,10.30
2019-05-26T00:16:57.039Z,10.30
2019-05-26T00:19:26.451Z,10.20
2019-05-26T00:21:55.814Z,10.20
2019-05-26T00:24:25.194Z,10.30
2019-05-26T00:26:54.561Z,10.30
2019-05-26T00:29:23.948Z,10.20
2019-05-26T00:31:53.298Z,10.10
2019-05-26T00:34:22.685Z,9.90
2019-05-26T00:36:52.040Z,9.70
2019-05-26T00:39:21.420Z,9.70
2019-05-26T00:41:50.781Z,9.70
2019-05-26T00:44:20.160Z,9.70
2019-05-26T00:46:49.543Z,9.70
2019-05-26T00:49:18.925Z,9.70
2019-05-26T00:51:48.332Z,9.70
2019-05-26T00:54:17.710Z,9.70
2019-05-26T00:56:47.062Z,9.80
2019-05-26T00:59:16.455Z,9.90
2019-05-26T01:01:45.819Z,9.90
2019-05-26T01:04:15.194Z,9.90
2019-05-26T01:06:44.559Z,9.80
2019-05-26T01:09:13.942Z,9.60
2019-05-26T01:11:43.311Z,9.40
2019-05-26T01:14:12.686Z,9.40
2019-05-26T01:16:42.042Z,9.30
2019-05-26T01:19:11.442Z,9.30
2019-05-26T01:21:40.799Z,9.20
2019-05-26T01:24:10.178Z,9.10
2019-05-26T01:26:39.552Z,9.10
2019-05-26T01:29:08.929Z,9.10
2019-05-26T01:31:38.286Z,9.20
2019-05-26T01:34:07.668Z,9.30
2019-05-26T01:36:37.126Z,9.30
2019-05-26T01:39:07.994Z,9.40
2019-05-26T01:41:37.375Z,9.40
2019-05-26T01:44:06.750Z,9.40
2019-05-26T01:46:36.142Z,9.40
2019-05-26T01:49:05.719Z,9.40
2019-05-26T01:51:35.100Z,9.30
2019-05-26T01:54:04.574Z,9.20
2019-05-26T01:56:33.931Z,9.20
2019-05-26T01:59:03.302Z,9.20
2019-05-26T02:01:32.666Z,9.20
2019-05-26T02:04:02.064Z,9.20
2019-05-26T02:06:31.419Z,9.20
2019-05-26T02:09:02.359Z,9.00
2019-05-26T02:11:31.725Z,8.90
2019-05-26T02:14:01.103Z,8.80
2019-05-26T02:16:30.456Z,8.80
2019-05-26T02:18:59.834Z,8.90
2019-05-26T02:21:29.244Z,8.90
2019-05-26T02:23:58.614Z,9.00
2019-05-26T02:26:27.907Z,9.10
2019-05-26T02:28:57.275Z,9.10
2019-05-26T02:31:26.664Z,9.10
2019-05-26T02:33:56.027Z,9.10
2019-05-26T02:36:25.403Z,9.10
2019-05-26T02:39:01.761Z,9.20
2019-05-26T02:41:25.889Z,9.30
2019-05-26T02:43:55.274Z,9.30
2019-05-26T02:46:24.678Z,9.40
2019-05-26T02:48:54.044Z,9.30
2019-05-26T02:51:23.419Z,9.20
2019-05-26T02:53:52.777Z,9.20
2019-05-26T02:56:22.437Z,9.10
2019-05-26T02:58:51.787Z,9.10
2019-05-26T03:01:21.266Z,9.00
2019-05-26T03:03:50.633Z,9.00
2019-05-26T03:06:22.216Z,9.00
2019-05-26T03:08:53.072Z,9.00
2019-05-26T03:11:24.171Z,9.00
2019-05-26T03:13:56.607Z,9.00
2019-05-26T03:16:28.695Z,9.00
2019-05-26T03:18:59.555Z,9.00
2019-05-26T03:21:30.423Z,9.00
2019-05-26T03:24:02.957Z,8.90
2019-05-26T03:26:32.336Z,8.80
2019-05-26T03:29:01.804Z,8.80
2019-05-26T03:31:31.699Z,8.80
2019-05-26T03:34:01.156Z,8.80
2019-05-26T03:36:30.851Z,8.80
2019-05-26T03:39:00.211Z,8.70
2019-05-26T03:41:29.608Z,8.70
2019-05-26T03:43:58.951Z,8.70
2019-05-26T03:46:28.374Z,8.80
2019-05-26T03:48:57.740Z,8.80
2019-05-26T03:51:27.240Z,9.00
2019-05-26T03:53:56.604Z,9.10
2019-05-26T03:56:25.984Z,9.30
2019-05-26T03:58:55.344Z,9.50
2019-05-26T04:01:24.730Z,9.60
2019-05-26T04:03:54.175Z,9.80
2019-05-26T04:06:23.570Z,10.00
2019-05-26T04:08:52.944Z,10.20
2019-05-26T04:11:22.356Z,10.30
2019-05-26T04:13:51.711Z,10.40
2019-05-26T04:16:21.105Z,10.40
2019-05-26T04:18:50.475Z,10.60
2019-05-26T04:21:19.919Z,10.70
2019-05-26T04:23:49.287Z,11.00
2019-05-26T04:26:18.689Z,11.30
2019-05-26T04:28:48.063Z,11.70
2019-05-26T04:31:17.470Z,12.00
2019-05-26T04:33:46.835Z,12.50
2019-05-26T04:36:16.227Z,12.90
2019-05-26T04:38:45.611Z,13.20
2019-05-26T04:41:15.004Z,13.30
2019-05-26T04:43:44.368Z,13.40
2019-05-26T04:46:13.793Z,13.50
2019-05-26T04:48:43.222Z,13.80
2019-05-26T04:51:12.580Z,14.30
2019-05-26T04:53:41.935Z,14.90
2019-05-26T04:56:11.330Z,15.50
2019-05-26T04:58:40.706Z,16.10
2019-05-26T05:01:10.092Z,16.80
2019-05-26T05:03:39.456Z,17.50
2019-05-26T05:06:08.863Z,18.10
2019-05-26T05:08:38.207Z,18.80
2019-05-26T05:11:07.616Z,19.70
2019-05-26T05:13:36.967Z,20.70
2019-05-26T05:16:06.354Z,21.70
2019-05-26T05:18:35.724Z,22.40
2019-05-26T05:21:05.111Z,23.10
2019-05-26T05:23:34.473Z,23.80
2019-05-26T05:26:03.862Z,24.20
2019-05-26T05:28:33.227Z,24.60
2019-05-26T05:31:02.614Z,24.70
2019-05-26T05:33:31.980Z,24.90
2019-05-26T05:36:01.370Z,25.20
2019-05-26T05:38:30.742Z,25.60
2019-05-26T05:41:00.505Z,25.90
2019-05-26T05:43:29.908Z,26.40
2019-05-26T05:45:59.312Z,26.60
2019-05-26T05:48:28.715Z,26.90
2019-05-26T05:50:58.074Z,27.20
2019-05-26T05:53:27.471Z,27.50
2019-05-26T05:55:56.835Z,27.40
2019-05-26T05:58:26.221Z,27.30
2019-05-26T06:00:55.587Z,27.40
2019-05-26T06:03:24.972Z,27.10
2019-05-26T06:05:54.330Z,27.00
2019-05-26T06:08:23.724Z,27.20
2019-05-26T06:10:53.092Z,27.80
2019-05-26T06:13:22.483Z,28.20
2019-05-26T06:15:51.855Z,28.30
2019-05-26T06:18:21.267Z,28.20
2019-05-26T06:20:50.675Z,28.10
2019-05-26T06:23:20.027Z,28.30
2019-05-26T06:25:49.387Z,28.20
2019-05-26T06:28:18.778Z,28.20
2019-05-26T06:30:48.143Z,28.10
2019-05-26T06:33:17.522Z,28.40
2019-05-26T06:35:46.899Z,28.80
2019-05-26T06:38:16.318Z,28.70
2019-05-26T06:40:45.691Z,28.40
2019-05-26T06:43:15.084Z,28.50
2019-05-26T06:45:44.466Z,28.40
2019-05-26T06:48:13.903Z,28.40
2019-05-26T06:50:43.273Z,28.40
2019-05-26T06:53:12.672Z,28.40
2019-05-26T06:55:42.037Z,28.50
2019-05-26T06:58:11.432Z,28.70
2019-05-26T07:00:40.809Z,28.40
2019-05-26T07:03:10.199Z,28.30
2019-05-26T07:05:39.574Z,28.30
2019-05-26T07:08:08.970Z,27.90
2019-05-26T07:10:38.726Z,27.80
2019-05-26T07:13:08.115Z,27.70
2019-05-26T07:15:37.492Z,27.60
2019-05-26T07:18:06.883Z,27.30
2019-05-26T07:20:36.250Z,27.30
2019-05-26T07:23:07.313Z,27.30
2019-05-26T07:25:36.692Z,27.20
2019-05-26T07:28:06.183Z,27.00
2019-05-26T07:30:35.557Z,27.00
2019-05-26T07:33:05.014Z,26.60
2019-05-26T07:35:34.383Z,26.20
2019-05-26T07:38:03.978Z,26.10
2019-05-26T07:40:33.349Z,26.10
2019-05-26T07:43:02.740Z,25.90
2019-05-26T07:45:32.117Z,26.10
2019-05-26T07:48:01.536Z,26.10
2019-05-26T07:50:30.900Z,25.90
2019-05-26T07:53:00.286Z,25.80
2019-05-26T07:55:29.661Z,25.20
2019-05-26T07:57:59.203Z,25.10
2019-05-26T08:00:28.579Z,25.20
2019-05-26T08:02:57.952Z,24.90
2019-05-26T08:05:27.315Z,24.80
2019-05-26T08:08:11.608Z,24.50
2019-05-26T08:10:27.714Z,24.30
2019-05-26T08:12:57.099Z,24.40
2019-05-26T08:15:26.473Z,24.80
2019-05-26T08:17:55.869Z,24.90
2019-05-26T08:20:25.241Z,25.10
2019-05-26T08:22:54.627Z,25.50
2019-05-26T08:25:23.996Z,25.70
2019-05-26T08:27:53.382Z,25.80
2019-05-26T08:30:22.955Z,25.40
2019-05-26T08:32:52.347Z,24.80
2019-05-26T08:35:21.707Z,24.60
2019-05-26T08:37:51.100Z,24.50
2019-05-26T08:40:20.462Z,24.60
2019-05-26T08:42:51.123Z,24.60
2019-05-26T08:45:22.288Z,24.80
2019-05-26T08:47:52.054Z,24.80
2019-05-26T08:50:22.527Z,25.00
2019-05-26T08:52:51.908Z,25.30
2019-05-26T08:55:21.478Z,25.00
2019-05-26T08:57:50.849Z,25.30
2019-05-26T09:00:20.530Z,25.60
2019-05-26T09:02:49.909Z,25.70
2019-05-26T09:05:19.495Z,25.80
2019-05-26T09:07:48.868Z,25.50
2019-05-26T09:10:20.154Z,25.30
2019-05-26T09:13:00.282Z,25.50
2019-05-26T09:15:20.748Z,25.60
2019-05-26T09:17:50.118Z,26.00
2019-05-26T09:20:19.807Z,25.90
2019-05-26T09:22:49.167Z,25.70
2019-05-26T09:25:18.574Z,25.00
2019-05-26T09:27:47.938Z,24.10
2019-05-26T09:30:17.733Z,23.90
2019-05-26T09:32:47.086Z,23.80
2019-05-26T09:35:16.483Z,23.50
2019-05-26T09:37:45.847Z,23.50
2019-05-26T09:40:15.442Z,23.60
2019-05-26T09:42:44.818Z,23.70
2019-05-26T09:45:14.618Z,23.60
2019-05-26T09:47:44.010Z,24.00
2019-05-26T09:50:14.798Z,24.60
2019-05-26T09:52:44.173Z,24.80
2019-05-26T09:55:13.761Z,24.90
2019-05-26T09:57:43.136Z,24.80
2019-05-26T10:00:16.258Z,24.80
2019-05-26T10:02:45.411Z,25.10
2019-05-26T10:05:15.151Z,25.40
2019-05-26T10:07:44.534Z,25.60
2019-05-26T10:10:14.427Z,26.00
2019-05-26T10:12:43.830Z,25.70
2019-05-26T10:15:13.831Z,25.40
2019-05-26T10:17:43.212Z,25.40
2019-05-26T10:20:13.105Z,25.60
2019-05-26T10:22:42.537Z,25.30
2019-05-26T10:25:12.076Z,24.80
2019-05-26T10:27:41.451Z,25.00
2019-05-26T10:30:12.519Z,25.30
2019-05-26T10:32:41.938Z,25.00
2019-05-26T10:35:11.537Z,24.70
2019-05-26T10:37:40.899Z,24.50
2019-05-26T10:40:11.200Z,24.70
2019-05-26T10:42:40.586Z,25.30
2019-05-26T10:45:10.570Z,26.10
2019-05-26T10:47:40.178Z,26.30
2019-05-26T10:50:10.099Z,26.50
2019-05-26T10:52:39.485Z,26.70
2019-05-26T10:55:10.080Z,26.80
2019-05-26T10:57:39.481Z,27.00
2019-05-26T11:00:09.570Z,26.70
2019-05-26T11:02:38.959Z,26.30
2019-05-26T11:05:08.955Z,26.40
2019-05-26T11:07:38.346Z,26.50
2019-05-26T11:10:08.238Z,25.80
2019-05-26T11:12:37.619Z,25.40
2019-05-26T11:15:07.362Z,25.30
2019-05-26T11:17:36.727Z,25.50
2019-05-26T11:20:06.895Z,26.20
2019-05-26T11:22:36.255Z,26.60
2019-05-26T11:25:06.221Z,26.50
2019-05-26T11:27:35.581Z,26.40
2019-05-26T11:30:05.949Z,26.50
2019-05-26T11:32:35.294Z,26.50
2019-05-26T11:35:05.033Z,26.80
2019-05-26T11:37:34.390Z,27.10
2019-05-26T11:40:03.888Z,27.30
2019-05-26T11:42:33.266Z,27.30
2019-05-26T11:45:02.651Z,27.70
2019-05-26T11:47:32.086Z,27.60
2019-05-26T11:50:01.492Z,27.40
2019-05-26T11:52:30.843Z,27.00
2019-05-26T11:55:00.227Z,26.90
2019-05-26T11:57:29.599Z,26.90
2019-05-26T11:59:58.984Z,27.10
2019-05-26T12:02:28.360Z,27.10
2019-05-26T12:04:57.755Z,27.30
2019-05-26T12:07:27.123Z,27.30
2019-05-26T12:09:56.561Z,27.10
2019-05-26T12:12:25.903Z,26.60
2019-05-26T12:14:55.292Z,26.00
2019-05-26T12:17:24.654Z,25.50
2019-05-26T12:19:54.146Z,25.60
2019-05-26T12:22:23.559Z,26.00
2019-05-26T12:24:52.938Z,26.00
2019-05-26T12:27:22.320Z,26.20
2019-05-26T12:29:51.687Z,25.90
2019-05-26T12:32:21.075Z,25.40
2019-05-26T12:34:50.444Z,25.40
2019-05-26T12:37:19.840Z,25.70
2019-05-26T12:39:49.199Z,26.10
2019-05-26T12:42:18.615Z,26.40
2019-05-26T12:44:49.827Z,26.30
2019-05-26T12:47:19.066Z,25.40
2019-05-26T12:49:48.436Z,24.60
2019-05-26T12:52:17.843Z,24.50
2019-05-26T12:54:47.204Z,24.50
2019-05-26T12:57:16.598Z,24.50
2019-05-26T12:59:45.969Z,25.00
2019-05-26T13:02:15.363Z,25.40
2019-05-26T13:04:44.736Z,25.30
2019-05-26T13:07:14.123Z,25.30
2019-05-26T13:09:43.500Z,25.20
2019-05-26T13:12:12.882Z,25.40
2019-05-26T13:14:42.264Z,25.20
2019-05-26T13:17:11.650Z,24.90
2019-05-26T13:19:41.025Z,24.90
2019-05-26T13:22:10.413Z,25.30
2019-05-26T13:24:39.791Z,25.50
2019-05-26T13:27:09.180Z,24.90
2019-05-26T13:29:38.548Z,24.60
2019-05-26T13:32:07.943Z,24.60
2019-05-26T13:34:37.303Z,24.80
2019-05-26T13:37:06.699Z,25.10
2019-05-26T13:39:36.064Z,25.60
2019-05-26T13:42:05.499Z,25.40
2019-05-26T13:44:34.870Z,24.90
2019-05-26T13:47:04.283Z,24.60
2019-05-26T13:49:33.688Z,24.80
2019-05-26T13:52:03.067Z,25.10
2019-05-26T13:54:32.444Z,25.30
2019-05-26T13:57:01.843Z,25.00
2019-05-26T13:59:31.215Z,24.50
2019-05-26T14:02:00.613Z,24.70
2019-05-26T14:04:29.975Z,24.80
2019-05-26T14:06:59.409Z,24.60
2019-05-26T14:09:28.781Z,24.60
2019-05-26T14:11:58.275Z,24.80
2019-05-26T14:14:27.887Z,24.60
2019-05-26T14:16:58.283Z,24.50
2019-05-26T14:19:30.046Z,24.40
2019-05-26T14:21:59.402Z,24.60
2019-05-26T14:24:28.780Z,24.90
2019-05-26T14:26:58.177Z,25.30
2019-05-26T14:29:27.538Z,25.30
2019-05-26T14:31:56.936Z,25.40
2019-05-26T14:34:26.295Z,25.40
2019-05-26T14:36:55.683Z,25.50
2019-05-26T14:39:25.100Z,25.40
2019-05-26T14:41:54.454Z,25.00
2019-05-26T14:44:23.828Z,24.60
2019-05-26T14:46:53.255Z,24.50
2019-05-26T14:49:22.626Z,24.40
2019-05-26T14:51:52.018Z,24.50
2019-05-26T14:54:21.403Z,24.60
2019-05-26T14:56:50.808Z,24.70
2019-05-26T14:59:20.183Z,24.50
2019-05-26T15:01:49.579Z,24.10
2019-05-26T15:04:18.948Z,23.90
2019-05-26T15:06:48.339Z,23.90
2019-05-26T15:09:25.170Z,23.90
2019-05-26T15:11:48.756Z,24.10
2019-05-26T15:14:18.125Z,24.30
2019-05-26T15:16:47.524Z,24.30
2019-05-26T15:19:16.884Z,24.10
2019-05-26T15:21:46.251Z,23.80
2019-05-26T15:24:15.647Z,23.70
2019-05-26T15:26:45.030Z,23.40
2019-05-26T15:29:14.400Z,23.20
2019-05-26T15:31:43.761Z,23.00
2019-05-26T15:34:13.159Z,22.80
2019-05-26T15:36:42.535Z,22.80
2019-05-26T15:39:12.031Z,22.80
2019-05-26T15:41:41.401Z,22.80
2019-05-26T15:44:10.791Z,22.90
2019-05-26T15:46:40.187Z,22.90
2019-05-26T15:49:09.575Z,23.00
2019-05-26T15:51:38.939Z,22.90
2019-05-26T15:54:08.327Z,22.80
2019-05-26T15:56:37.692Z,22.80
2019-05-26T15:59:07.070Z,22.80
2019-05-26T16:01:36.457Z,22.90
2019-05-26T16:04:05.915Z,23.00
2019-05-26T16:06:35.388Z,23.20
2019-05-26T16:09:05.990Z,23.20
2019-05-26T16:11:35.355Z,23.30
2019-05-26T16:14:05.046Z,23.20
2019-05-26T16:16:41.120Z,23.20
2019-05-26T16:19:05.583Z,23.20
2019-05-26T16:21:34.963Z,23.20
2019-05-26T16:24:04.553Z,23.20
2019-05-26T16:26:33.919Z,23.00
2019-05-26T16:29:03.479Z,22.80
2019-05-26T16:31:32.875Z,22.70
2019-05-26T16:34:02.271Z,22.70
2019-05-26T16:36:31.638Z,22.80
2019-05-26T16:39:01.033Z,22.90
2019-05-26T16:41:30.401Z,22.90
2019-05-26T16:43:59.786Z,22.90
2019-05-26T16:46:29.216Z,22.80
2019-05-26T16:48:58.602Z,22.50
2019-05-26T16:51:27.970Z,22.30
2019-05-26T16:53:57.376Z,22.00
2019-05-26T16:56:26.752Z,22.00
2019-05-26T16:58:56.151Z,21.80
2019-05-26T17:01:25.515Z,21.70
2019-05-26T17:03:54.903Z,21.60
2019-05-26T17:06:24.289Z,21.60
2019-05-26T17:08:53.675Z,21.80
2019-05-26T17:11:23.045Z,21.80
2019-05-26T17:13:52.480Z,21.70
2019-05-26T17:16:21.854Z,21.70
2019-05-26T17:18:51.265Z,21.80
2019-05-26T17:21:20.621Z,21.80
2019-05-26T17:23:50.007Z,21.70
2019-05-26T17:26:19.381Z,21.70
2019-05-26T17:28:49.781Z,21.60
2019-05-26T17:31:19.137Z,21.50
2019-05-26T17:33:48.635Z,21.40
2019-05-26T17:36:17.999Z,21.30
2019-05-26T17:38:47.402Z,21.20
2019-05-26T17:41:16.771Z,21.20
2019-05-26T17:43:46.159Z,21.10
2019-05-26T17:46:15.552Z,21.10
2019-05-26T17:48:44.934Z,21.10
2019-05-26T17:51:14.303Z,21.10
2019-05-26T17:53:43.708Z,21.10
2019-05-26T17:56:13.074Z,21.00
2019-05-26T17:58:42.472Z,20.90
2019-05-26T18:01:11.871Z,20.80
2019-05-26T18:03:41.294Z,20.70
2019-05-26T18:06:10.639Z,20.60
2019-05-26T18:08:40.032Z,20.60
2019-05-26T18:11:09.425Z,20.50
2019-05-26T18:13:38.798Z,20.40
2019-05-26T18:16:08.172Z,20.30
2019-05-26T18:18:37.565Z,20.20
2019-05-26T18:21:06.931Z,20.10
2019-05-26T18:23:36.314Z,20.00
2019-05-26T18:26:05.810Z,20.00
2019-05-26T18:28:35.210Z,19.90
2019-05-26T18:31:04.576Z,19.70
2019-05-26T18:33:33.967Z,19.70
2019-05-26T18:36:03.335Z,19.60
2019-05-26T18:38:32.745Z,19.60
2019-05-26T18:41:02.090Z,19.40
2019-05-26T18:43:31.455Z,19.20
2019-05-26T18:46:00.867Z,19.00
2019-05-26T18:48:30.234Z,18.70
2019-05-26T18:50:59.631Z,18.60
2019-05-26T18:53:29.805Z,18.40
2019-05-26T18:55:59.463Z,18.30
2019-05-26T18:58:28.827Z,18.20
2019-05-26T19:00:58.221Z,18.10
2019-05-26T19:03:27.596Z,18.00
2019-05-26T19:05:56.984Z,17.90
2019-05-26T19:08:26.356Z,17.70
2019-05-26T19:10:55.731Z,17.50
2019-05-26T19:13:25.106Z,17.30
2019-05-26T19:15:54.486Z,17.10
2019-05-26T19:18:23.906Z,16.90
2019-05-26T19:20:53.247Z,16.70
2019-05-26T19:23:22.620Z,16.60
2019-05-26T19:25:52.007Z,16.50
2019-05-26T19:28:21.367Z,16.40
2019-05-26T19:30:50.769Z,16.20
2019-05-26T19:33:20.136Z,16.00
2019-05-26T19:35:49.535Z,15.90
2019-05-26T19:38:18.899Z,15.70
2019-05-26T19:40:48.287Z,15.60
2019-05-26T19:43:17.668Z,15.50
2019-05-26T19:45:47.042Z,15.40
2019-05-26T19:48:16.430Z,15.30
2019-05-26T19:50:45.831Z,15.30
2019-05-26T19:53:15.195Z,15.20
2019-05-26T19:55:44.587Z,15.20
2019-05-26T19:58:13.954Z,15.10
2019-05-26T20:00:43.344Z,15.00
2019-05-26T20:03:12.704Z,14.80
2019-05-26T20:05:42.107Z,14.70
2019-05-26T20:08:11.464Z,14.70
2019-05-26T20:10:40.854Z,14.70
2019-05-26T20:13:10.233Z,14.60
2019-05-26T20:15:39.611Z,14.60
2019-05-26T20:18:08.970Z,14.60
2019-05-26T20:20:38.355Z,14.50
2019-05-26T20:23:07.714Z,14.40
2019-05-26T20:25:37.093Z,14.30
2019-05-26T20:28:06.483Z,14.20
2019-05-26T20:30:35.856Z,14.10
2019-05-26T20:33:05.222Z,14.10
2019-05-26T20:35:34.614Z,14.10
2019-05-26T20:38:03.991Z,14.00
2019-05-26T20:40:33.376Z,13.90
2019-05-26T20:43:02.777Z,13.80
2019-05-26T20:45:32.207Z,13.70
2019-05-26T20:48:01.597Z,13.60
2019-05-26T20:50:30.988Z,13.50
2019-05-26T20:53:00.352Z,13.40
2019-05-26T20:55:29.785Z,13.40
2019-05-26T20:57:59.143Z,13.40
2019-05-26T21:00:28.535Z,13.40
2019-05-26T21:02:57.907Z,13.40
2019-05-26T21:05:27.290Z,13.30
2019-05-26T21:07:56.673Z,13.20
2019-05-26T21:10:26.112Z,13.20
2019-05-26T21:12:55.447Z,13.10
2019-05-26T21:15:24.840Z,13.10
2019-05-26T21:17:54.220Z,13.00
2019-05-26T21:20:23.612Z,13.00
2019-05-26T21:22:52.991Z,12.90
2019-05-26T21:25:22.370Z,12.90
2019-05-26T21:27:51.722Z,12.80
2019-05-26T21:30:21.135Z,12.70
2019-05-26T21:32:50.519Z,12.70
2019-05-26T21:35:19.885Z,12.60
2019-05-26T21:37:49.280Z,12.50
2019-05-26T21:40:18.651Z,12.50
2019-05-26T21:42:48.036Z,12.40
2019-05-26T21:45:17.503Z,12.40
2019-05-26T21:47:46.911Z,12.40
2019-05-26T21:50:16.475Z,12.40
2019-05-26T21:52:45.871Z,12.40
2019-05-26T21:55:15.239Z,12.40
2019-05-26T21:57:44.635Z,12.40
2019-05-26T22:00:15.971Z,12.40
2019-05-26T22:02:45.351Z,12.40
2019-05-26T22:05:14.715Z,12.40
2019-05-26T22:07:44.126Z,12.40
2019-05-26T22:10:13.690Z,12.40
2019-05-26T22:12:43.080Z,12.20
2019-05-26T22:15:12.851Z,12.00
2019-05-26T22:17:42.240Z,11.90
2019-05-26T22:20:12.011Z,11.90
2019-05-26T22:22:41.398Z,11.90
2019-05-26T22:25:10.863Z,11.90
2019-05-26T22:27:40.242Z,11.90
2019-05-26T22:30:10.380Z,11.90
2019-05-26T22:32:39.704Z,11.70
2019-05-26T22:35:09.367Z,11.70
2019-05-26T22:37:38.759Z,11.70
2019-05-26T22:40:08.790Z,11.70
2019-05-26T22:42:38.163Z,11.70
2019-05-26T22:45:07.559Z,11.60
2019-05-26T22:47:36.959Z,11.60
2019-05-26T22:50:06.738Z,11.60
2019-05-26T22:52:36.124Z,11.60
2019-05-26T22:55:05.984Z,11.60
2019-05-26T22:57:35.374Z,11.60
2019-05-26T23:00:05.382Z,11.60
2019-05-26T23:02:34.758Z,11.60
2019-05-26T23:05:04.403Z,11.70
2019-05-26T23:07:33.783Z,11.60
2019-05-26T23:10:03.174Z,11.60
2019-05-26T23:12:32.560Z,11.70
2019-05-26T23:15:01.916Z,11.60
2019-05-26T23:17:31.307Z,11.60
2019-05-26T23:20:00.675Z,11.60
2019-05-26T23:22:30.069Z,11.50
2019-05-26T23:24:59.434Z,11.50
2019-05-26T23:27:28.827Z,11.40
2019-05-26T23:29:58.183Z,11.40
2019-05-26T23:32:27.616Z,11.30
2019-05-26T23:34:56.991Z,11.30
2019-05-26T23:37:26.376Z,11.20
2019-05-26T23:39:55.735Z,11.20
2019-05-26T23:42:25.167Z,11.10
2019-05-26T23:44:54.526Z,11.10
2019-05-26T23:47:23.942Z,11.10
2019-05-26T23:49:53.303Z,11.10
2019-05-26T23:52:22.687Z,11.10
2019-05-26T23:54:52.050Z,11.10
2019-05-26T23:57:21.445Z,11.10
2019-05-26T23:59:50.808Z,11.10
